createdAt,value
2023-04-12T00:03:27.531Z,11.07
2023-04-12T00:08:35.554Z,15.17
2023-04-12T00:13:38.596Z,14.50
2023-04-12T00:18:42.587Z,7.93
2023-04-12T00:23:46.922Z,8.27
2023-04-12T00:28:49.775Z,12.77
2023-04-12T00:33:52.684Z,7.97
2023-04-12T00:38:55.691Z,9.87
2023-04-12T00:43:58.893Z,10.97
2023-04-12T00:49:03.397Z,9.13
2023-04-12T00:54:07.391Z,10.07
2023-04-12T00:59:10.312Z,11.40
2023-04-12T01:04:14.082Z,8.07
2023-04-12T01:09:23.935Z,7.17
2023-04-12T01:14:35.580Z,10.33
2023-04-12T01:20:23.652Z,9.37
2023-04-12T01:25:48.608Z,7.70
2023-04-12T01:30:59.311Z,9.23
2023-04-12T01:36:24.314Z,7.13
2023-04-12T01:41:27.216Z,11.37
2023-04-12T01:46:30.335Z,6.93
2023-04-12T01:51:59.056Z,10.40
2023-04-12T01:57:11.115Z,8.70
2023-04-12T02:02:14.648Z,5.00
2023-04-12T02:07:19.622Z,7.67
2023-04-12T02:12:28.474Z,5.40
2023-04-12T02:17:34.302Z,8.40
2023-04-12T02:22:40.688Z,3.97
2023-04-12T02:27:47.134Z,6.40
2023-04-12T02:32:53.927Z,3.50
2023-04-12T02:37:59.512Z,6.27
2023-04-12T02:43:02.858Z,4.87
2023-04-12T02:48:06.109Z,6.33
2023-04-12T02:53:09.153Z,5.50
2023-04-12T02:58:15.747Z,6.80
2023-04-12T03:03:19.481Z,7.23
2023-04-12T03:08:22.834Z,8.93
2023-04-12T03:13:28.788Z,12.33
2023-04-12T03:18:32.231Z,6.03
2023-04-12T03:23:39.889Z,7.87
2023-04-12T03:28:43.291Z,5.90
2023-04-12T03:33:46.359Z,7.97
2023-04-12T03:38:49.237Z,19.47
2023-04-12T03:43:55.285Z,10.63
2023-04-12T03:48:59.220Z,13.87
2023-04-12T03:54:03.128Z,10.47
2023-04-12T03:59:10.312Z,7.70
2023-04-12T04:04:18.579Z,7.93
2023-04-12T04:09:22.326Z,10.53
2023-04-12T04:14:27.830Z,10.27
2023-04-12T04:19:33.175Z,10.63
2023-04-12T04:24:39.081Z,9.10
2023-04-12T04:29:44.482Z,8.63
2023-04-12T04:34:50.236Z,7.17
2023-04-12T04:39:57.150Z,12.43
2023-04-12T04:45:02.708Z,9.33
2023-04-12T04:50:06.610Z,7.20
2023-04-12T04:55:13.319Z,10.00
2023-04-12T05:00:16.953Z,17.33
2023-04-12T05:05:23.426Z,10.53
2023-04-12T05:10:28.387Z,9.27
2023-04-12T05:15:32.283Z,12.90
2023-04-12T05:20:35.312Z,10.60
2023-04-12T05:25:43.867Z,8.60
2023-04-12T05:30:48.534Z,9.80
2023-04-12T05:35:53.469Z,8.30
2023-04-12T05:40:56.746Z,7.17
2023-04-12T05:46:03.255Z,10.80
2023-04-12T05:51:07.089Z,10.10
2023-04-12T05:56:10.898Z,10.83
2023-04-12T06:01:15.301Z,9.67
2023-04-12T06:06:18.798Z,8.30
2023-04-12T06:11:24.461Z,11.57
2023-04-12T06:16:27.877Z,8.57
2023-04-12T06:21:31.096Z,9.67
2023-04-12T06:26:39.626Z,13.40
2023-04-12T06:31:43.771Z,8.77
2023-04-12T06:36:47.790Z,16.10
2023-04-12T06:41:50.789Z,10.53
2023-04-12T06:46:54.057Z,11.87
2023-04-12T06:51:57.018Z,11.30
2023-04-12T06:57:01.788Z,7.70
2023-04-12T07:02:04.745Z,8.10
2023-04-12T07:07:08.175Z,14.80
2023-04-12T07:12:11.732Z,14.63
2023-04-12T07:17:15.126Z,16.13
2023-04-12T07:22:18.110Z,8.83
2023-04-12T07:27:21.829Z,10.77
2023-04-12T07:32:25.748Z,11.63
2023-04-12T07:37:28.777Z,12.80
2023-04-12T07:42:32.106Z,9.27
2023-04-12T07:47:35.135Z,6.47
2023-04-12T07:52:38.675Z,8.63
2023-04-12T07:57:42.182Z,11.70
2023-04-12T08:02:45.745Z,7.23
2023-04-12T08:07:49.491Z,9.23
2023-04-12T08:12:53.101Z,7.47
2023-04-12T08:17:56.532Z,7.03
2023-04-12T08:23:00.123Z,6.23
2023-04-12T08:28:04.165Z,6.97
2023-04-12T08:33:07.900Z,8.03
2023-04-12T08:38:11.533Z,5.90
2023-04-12T08:43:15.765Z,6.03
2023-04-12T08:48:19.532Z,8.57
2023-04-12T08:53:22.682Z,7.67
2023-04-12T08:58:31.800Z,10.63
2023-04-12T09:03:37.183Z,9.40
2023-04-12T09:08:54.642Z,12.07
2023-04-12T09:13:59.205Z,9.97
2023-04-12T09:19:03.646Z,9.30
2023-04-12T09:24:14.631Z,6.90
2023-04-12T09:29:25.732Z,9.40
2023-04-12T09:34:32.231Z,7.50
2023-04-12T09:39:35.869Z,6.70
2023-04-12T09:44:40.614Z,6.40
2023-04-12T09:49:45.387Z,8.03
2023-04-12T09:54:49.655Z,7.13
2023-04-12T09:59:53.931Z,7.63
2023-04-12T10:04:57.796Z,6.70
2023-04-12T10:10:02.099Z,4.03
2023-04-12T10:15:17.703Z,5.37
2023-04-12T10:20:27.066Z,14.73
2023-04-12T10:25:32.679Z,4.23
2023-04-12T10:30:36.940Z,6.23
2023-04-12T10:36:03.239Z,6.63
2023-04-12T10:41:13.712Z,4.83
2023-04-12T10:46:39.829Z,4.33
2023-04-12T10:52:09.761Z,4.07
2023-04-12T10:57:44.333Z,4.23
2023-04-12T11:03:08.159Z,4.77
2023-04-12T11:08:13.308Z,3.10
2023-04-12T11:13:17.069Z,3.47
2023-04-12T11:18:20.211Z,3.87
2023-04-12T11:23:25.288Z,2.93
2023-04-12T11:28:31.932Z,2.90
2023-04-12T11:33:41.675Z,2.57
2023-04-12T11:38:46.464Z,3.67
2023-04-12T11:43:49.996Z,5.30
2023-04-12T11:48:53.445Z,3.73
2023-04-12T11:53:58.291Z,2.40
2023-04-12T11:59:01.409Z,2.27
2023-04-12T12:04:05.760Z,4.20
2023-04-12T12:09:09.672Z,3.07
2023-04-12T12:14:13.009Z,2.27
2023-04-12T12:19:16.814Z,2.43
2023-04-12T12:24:21.044Z,2.40
2023-04-12T12:29:26.186Z,2.87
2023-04-12T12:34:34.546Z,2.57
2023-04-12T12:39:38.104Z,6.20
2023-04-12T12:44:41.603Z,1.70
2023-04-12T12:49:45.127Z,2.20
2023-04-12T12:54:48.466Z,2.70
2023-04-12T12:59:51.954Z,2.77
2023-04-12T13:04:55.193Z,3.03
2023-04-12T13:09:58.418Z,1.97
2023-04-12T13:15:17.390Z,3.53
2023-04-12T13:20:24.039Z,2.63
2023-04-12T13:25:29.623Z,2.20
2023-04-12T13:30:33.499Z,1.93
2023-04-12T13:35:37.156Z,2.50
2023-04-12T13:40:41.150Z,3.30
2023-04-12T13:45:46.577Z,2.70
2023-04-12T13:50:51.061Z,2.43
2023-04-12T13:55:55.849Z,3.37
2023-04-12T14:01:00.725Z,4.27
2023-04-12T14:06:09.687Z,3.93
2023-04-12T14:11:13.815Z,4.17
2023-04-12T14:16:19.630Z,3.27
2023-04-12T14:21:32.674Z,3.90
2023-04-12T14:27:03.736Z,2.40
2023-04-12T14:32:09.382Z,3.70
2023-04-12T14:37:19.703Z,2.63
2023-04-12T14:42:22.770Z,4.60
2023-04-12T14:47:28.282Z,4.93
2023-04-12T14:52:33.494Z,3.60
2023-04-12T14:57:40.393Z,2.80
2023-04-12T15:02:45.959Z,2.60
2023-04-12T15:07:50.112Z,3.47
2023-04-12T15:12:53.211Z,3.17
2023-04-12T15:17:56.396Z,5.53
2023-04-12T15:22:59.361Z,7.87
2023-04-12T15:28:02.314Z,3.77
2023-04-12T15:33:05.188Z,2.67
2023-04-12T15:38:13.551Z,6.07
2023-04-12T15:43:18.317Z,4.57
2023-04-12T15:48:25.380Z,3.70
2023-04-12T15:53:30.537Z,4.07
2023-04-12T15:58:33.433Z,3.17
2023-04-12T16:08:39.746Z,2.55
2023-04-12T16:13:45.249Z,3.92
2023-04-12T16:19:00.689Z,3.28
2023-04-12T16:24:04.888Z,2.53
2023-04-12T16:29:09.099Z,2.53
2023-04-12T16:34:12.409Z,1.75
2023-04-12T16:39:15.365Z,2.05
2023-04-12T16:44:18.943Z,2.45
2023-04-12T16:49:22.416Z,3.43
2023-04-12T16:54:30.096Z,3.07
2023-04-12T16:59:40.491Z,4.00
2023-04-12T17:04:55.063Z,5.00
2023-04-12T17:10:11.776Z,3.50
2023-04-12T17:15:18.846Z,2.47
2023-04-12T17:20:25.097Z,2.10
2023-04-12T17:25:31.178Z,3.87
2023-04-12T17:30:35.439Z,2.93
2023-04-12T17:35:40.567Z,1.70
2023-04-12T17:40:43.724Z,2.87
2023-04-12T17:45:47.134Z,2.83
2023-04-12T17:50:50.330Z,4.70
2023-04-12T17:55:53.201Z,3.90
2023-04-12T18:00:56.529Z,5.03
2023-04-12T18:06:01.105Z,3.63
2023-04-12T18:11:07.227Z,3.43
2023-04-12T18:16:10.293Z,4.90
2023-04-12T18:21:14.784Z,4.20
2023-04-12T18:26:17.950Z,11.43
2023-04-12T18:31:21.200Z,6.43
2023-04-12T18:36:28.363Z,9.97
2023-04-12T18:41:31.601Z,9.40
2023-04-12T18:46:35.556Z,7.70
2023-04-12T18:51:38.738Z,4.30
2023-04-12T18:56:42.671Z,8.47
2023-04-12T19:01:46.453Z,9.80
2023-04-12T19:06:49.680Z,9.63
2023-04-12T19:11:55.534Z,10.43
2023-04-12T19:16:58.460Z,12.43
2023-04-12T19:22:01.377Z,10.40
2023-04-12T19:27:05.939Z,8.70
2023-04-12T19:32:13.616Z,8.07
2023-04-12T19:37:17.999Z,8.20
2023-04-12T19:42:23.040Z,18.27
2023-04-12T19:47:48.986Z,5.70
2023-04-12T19:52:52.683Z,9.93
2023-04-12T19:57:59.494Z,8.80
2023-04-12T20:03:03.383Z,7.10
2023-04-12T20:08:06.568Z,10.47
2023-04-12T20:13:15.103Z,6.87
2023-04-12T20:18:18.285Z,10.00
2023-04-12T20:23:26.040Z,11.90
2023-04-12T20:28:29.556Z,10.63
2023-04-12T20:33:32.584Z,7.67
2023-04-12T20:38:35.904Z,13.40
2023-04-12T20:43:48.720Z,11.30
2023-04-12T20:48:53.325Z,9.70
2023-04-12T20:53:58.385Z,13.03
2023-04-12T20:59:04.670Z,14.70
2023-04-12T21:04:08.544Z,11.60
2023-04-12T21:09:11.752Z,14.90
2023-04-12T21:14:15.312Z,12.70
2023-04-12T21:19:18.555Z,13.67
2023-04-12T21:24:21.726Z,17.30
2023-04-12T21:29:25.826Z,17.27
2023-04-12T21:34:29.748Z,15.03
2023-04-12T21:39:32.999Z,20.53
2023-04-12T21:44:36.102Z,16.90
2023-04-12T21:49:41.214Z,17.40
2023-04-12T21:54:47.459Z,19.80
2023-04-12T21:59:53.715Z,11.77
2023-04-12T22:04:56.822Z,18.73
2023-04-12T22:10:01.716Z,29.03
2023-04-12T22:15:05.496Z,16.77
2023-04-12T22:20:09.106Z,20.37
2023-04-12T22:25:15.709Z,19.90
2023-04-12T22:30:18.705Z,13.63
2023-04-12T22:35:22.830Z,15.63
2023-04-12T22:40:26.051Z,14.10
2023-04-12T22:45:32.621Z,14.73
2023-04-12T22:50:35.492Z,14.87
2023-04-12T22:55:40.177Z,17.30
2023-04-12T23:00:46.072Z,14.73
2023-04-12T23:05:51.110Z,14.03
2023-04-12T23:11:03.754Z,14.63
2023-04-12T23:16:08.116Z,14.10
2023-04-12T23:21:11.931Z,14.57
2023-04-12T23:26:14.854Z,13.40
2023-04-12T23:31:17.827Z,16.70
2023-04-12T23:36:22.095Z,14.63
2023-04-12T23:41:27.503Z,15.10
2023-04-12T23:46:30.626Z,14.60
2023-04-12T23:51:33.574Z,13.67
2023-04-12T23:56:36.450Z,15.87
